Latest Weather Observations for Scoresby

IDV60901

Issued at 7:41 pm EDT Wednesday 22 February 2017 (issued every 10 minutes, with the page automatically refreshed every 10 minutes)

About weather observations | Map of Melbourne area stations | Latest observations for Melbourne area | Other Formats
Station Details ID: 086104 Name: SCORESBY RESEARCH INSTITUTE Lat: -37.87 Lon: 145.26 Height: 80.0 m
Data from the previous 72 hours. | See also: Recent months at Scoresby
Date/Time
EDT
Temp
°C
App
Temp
°C
Dew
Point
°C
Rel
Hum
%
Delta-T
°C
Wind Press
QNH
hPa
Press
MSL
hPa
Rain since
9am
mm
Dir  Spd
km/h
Gust
km/h
Spd
kts
Gust
kts
22/07:30pm 31.1 27.5 4.8 19 13.8 NNE 13 26 7 14 - - 0.0
22/07:00pm 31.8 27.7 4.6 18 14.2 NNE 15 28 8 15 - - 0.0
22/06:30pm 31.7 27.4 5.3 19 14.0 N 17 33 9 18 - - 0.0
22/06:00pm 31.5 27.3 5.8 20 13.7 NNE 17 32 9 17 - - 0.0
22/05:30pm 31.0 26.7 5.4 20 13.5 N 17 33 9 18 - - 0.0
22/05:00pm 31.3 26.5 4.9 19 13.9 N 19 33 10 18 - - 0.0
22/04:30pm 31.4 26.3 4.2 18 14.1 N 20 33 11 18 - - 0.0
22/04:00pm 31.0 25.9 3.9 18 14.0 N 20 41 11 22 - - 0.0
22/03:30pm 30.8 24.8 5.3 20 13.4 NNE 26 46 14 25 - - 0.0
22/03:00pm 30.3 25.8 6.2 22 12.9 N 19 35 10 19 - - 0.0
22/02:30pm 29.8 25.3 7.1 24 12.3 NNE 20 39 11 21 - - 0.0
22/02:00pm 29.1 24.7 6.5 24 12.0 N 19 35 10 19 - - 0.0
22/01:30pm 28.6 23.9 7.8 27 11.3 NNE 22 35 12 19 - - 0.0
22/01:00pm 27.8 23.3 7.1 27 11.1 NNE 20 37 11 20 - - 0.0
22/12:30pm 27.1 22.3 7.5 29 10.5 NNE 22 35 12 19 - - 0.0
22/12:00pm 26.5 22.6 8.5 32 9.8 NNE 19 30 10 16 - - 0.0
22/11:30am 25.7 21.1 6.3 29 10.1 NNE 20 33 11 18 - - 0.0
22/11:00am 25.2 22.3 8.2 34 9.1 NNE 13 22 7 12 - - 0.0
22/10:30am 23.5 20.3 8.4 38 8.1 NE 15 24 8 13 - - 0.0
22/10:00am 22.0 18.5 7.0 38 7.7 NNE 15 24 8 13 - - 0.0
22/09:30am 21.1 17.3 5.9 37 7.6 NNE 15 22 8 12 - - 0.0
22/09:00am 19.9 16.4 7.0 43 6.6 NE 15 24 8 13 - - 0.0
22/08:30am 18.8 15.2 6.6 45 6.1 NE 15 20 8 11 - - 0.0
22/08:00am 17.4 13.8 6.6 49 5.4 NE 15 22 8 12 - - 0.0
22/07:30am 16.3 13.1 7.0 54 4.6 NNE 13 26 7 14 - - 0.0
22/07:00am 14.7 12.4 7.3 61 3.7 NNE 9 15 5 8 - - 0.0
22/06:30am 15.1 12.4 7.2 59 3.9 NNE 11 17 6 9 - - 0.0
22/06:00am 14.5 12.7 7.8 64 3.3 NNE 7 13 4 7 - - 0.0
22/05:30am 13.3 11.6 8.4 72 2.5 NE 7 13 4 7 - - 0.0
22/05:00am 12.0 11.7 8.8 81 1.6 CALM 0 2 0 1 - - 0.0
22/04:30am 11.1 10.8 8.5 84 1.3 CALM 0 0 0 0 - - 0.0
22/04:00am 11.9 11.8 9.5 85 1.2 CALM 0 4 0 2 - - 0.0
22/03:30am 11.9 11.9 9.8 87 1.1 CALM 0 0 0 0 - - 0.0
22/03:00am 10.1 9.9 9.2 94 0.4 CALM 0 0 0 0 - - 0.0
22/02:30am 10.6 10.6 9.7 94 0.5 CALM 0 0 0 0 - - 0.0
22/02:00am 10.9 11.0 10.0 94 0.5 CALM 0 0 0 0 - - 0.0
22/01:30am 11.2 11.3 10.1 93 0.6 CALM 0 0 0 0 - - 0.0
22/01:00am 11.8 12.0 10.7 93 0.6 CALM 0 0 0 0 - - 0.0
22/12:30am 12.1 12.3 10.7 91 0.7 CALM 0 0 0 0 - - 0.0
22/12:00am 12.4 12.7 10.8 90 0.8 CALM 0 0 0 0 - - 0.0
 
Date/Time
EDT
Temp
°C
App
Temp
°C
Dew
Point
°C
Rel
Hum
%
Delta-T
°C
Wind Press
QNH
hPa
Press
MSL
hPa
Rain since
9am
mm
Dir  Spd
km/h
Gust
km/h
Spd
kts
Gust
kts
21/11:30pm 13.1 13.4 11.0 87 1.1 CALM 0 0 0 0 - - 0.0
21/11:00pm 14.1 14.5 11.1 82 1.6 CALM 0 0 0 0 - - 0.0
21/10:30pm 15.5 15.7 10.7 73 2.6 CALM 0 4 0 2 - - 0.0
21/10:00pm 16.6 16.1 10.9 69 3.1 SSE 4 9 2 5 - - 0.0
21/09:30pm 17.5 16.5 10.9 65 3.6 SSE 7 15 4 8 - - 0.0
21/09:00pm 18.3 16.5 10.9 62 4.0 SSE 11 19 6 10 - - 0.0
21/08:30pm 18.7 17.0 11.3 62 4.1 SSE 11 20 6 11 - - 0.0
21/08:00pm 19.4 17.8 11.4 60 4.4 SSE 11 22 6 12 - - 0.0
21/07:30pm 20.1 18.4 11.3 57 4.9 SSE 11 20 6 11 - - 0.0
21/07:00pm 21.2 19.1 11.2 53 5.5 SSE 13 24 7 13 - - 0.0
21/06:30pm 22.8 20.8 8.5 40 7.6 SSE 9 19 5 10 - - 0.0
21/06:00pm 23.2 21.3 8.9 40 7.7 SSE 9 17 5 9 - - 0.0
21/05:30pm 23.4 21.8 7.9 37 8.2 SE 6 13 3 7 - - 0.0
21/05:00pm 23.9 21.7 6.2 32 9.1 SSW 7 15 4 8 - - 0.0
21/04:30pm 23.6 21.6 6.4 33 8.9 S 6 11 3 6 - - 0.0
21/04:00pm 23.9 23.1 8.3 37 8.3 SSE 2 7 1 4 - - 0.0
21/03:30pm 23.5 22.5 7.2 35 8.5 N 2 9 1 5 - - 0.0
21/03:00pm 22.9 21.8 7.1 36 8.2 WNW 2 7 1 4 - - 0.0
21/02:30pm 22.6 21.0 8.0 39 7.7 SSW 6 9 3 5 - - 0.0
21/02:00pm 21.7 20.4 7.5 40 7.4 E 4 9 2 5 - - 0.0
21/01:30pm 20.3 18.4 6.6 41 6.9 WSW 6 11 3 6 - - 0.0
21/01:00pm 20.0 18.3 7.7 45 6.3 SW 6 9 3 5 - - 0.0
21/12:30pm 20.1 18.8 7.8 45 6.4 NNW 4 7 2 4 - - 0.0
21/12:00pm 18.8 17.2 7.9 49 5.6 NE 6 9 3 5 - - 0.0
21/11:30am 18.3 17.4 9.1 55 4.8 W 4 9 2 5 - - 0.0
21/11:00am 17.5 16.1 8.9 57 4.5 WNW 6 9 3 5 - - 0.0
21/10:30am 16.6 15.3 9.3 62 3.8 NNE 6 11 3 6 - - 0.0
21/10:00am 16.0 14.8 10.3 69 3.0 NNE 7 13 4 7 - - 0.0
21/09:30am 14.6 13.4 9.4 71 2.7 NNE 6 11 3 6 - - 0.0
21/09:00am 13.5 11.6 9.0 74 2.3 NE 9 13 5 7 - - 4.2
21/08:30am 12.7 11.3 8.8 77 2.0 NNE 6 9 3 5 - - 4.2
21/08:00am 11.4 10.0 8.8 84 1.3 NNE 6 7 3 4 - - 4.2
21/07:30am 9.4 8.1 7.7 89 0.8 NE 4 6 2 3 - - 4.2
21/07:00am 9.2 7.4 7.3 88 0.9 NE 6 11 3 6 - - 4.2
21/06:30am 9.5 7.8 7.6 88 0.9 NE 6 9 3 5 - - 4.2
21/06:00am 9.6 7.7 7.7 88 0.9 NE 7 11 4 6 - - 4.2
21/05:30am 9.0 7.7 7.5 90 0.7 NNE 4 6 2 3 - - 4.2
21/05:00am 8.6 7.5 7.1 90 0.7 NE 2 6 1 3 - - 4.2
21/04:30am 8.9 7.5 7.2 89 0.8 NE 4 6 2 3 - - 4.2
21/04:00am 9.2 8.2 7.5 89 0.8 NNE 2 6 1 3 - - 4.2
21/03:30am 10.1 8.8 7.7 85 1.2 NNE 4 6 2 3 - - 4.2
21/03:00am 10.2 9.0 8.0 86 1.1 NNE 4 7 2 4 - - 4.2
21/02:30am 10.8 9.8 8.9 88 0.9 NE 4 6 2 3 - - 4.2
21/02:00am 11.1 10.6 9.5 90 0.8 NNE 2 6 1 3 - - 4.2
21/01:30am 11.6 11.6 9.7 88 1.0 CALM 0 0 0 0 - - 4.2
21/01:00am 11.8 11.8 9.9 88 1.0 CALM 0 0 0 0 - - 4.2
21/12:30am 11.8 12.0 10.4 91 0.7 CALM 0 0 0 0 - - 4.2
21/12:00am 11.7 11.8 10.1 90 0.8 CALM 0 0 0 0 - - 4.2
 
Date/Time
EDT
Temp
°C
App
Temp
°C
Dew
Point
°C
Rel
Hum
%
Delta-T
°C
Wind Press
QNH
hPa
Press
MSL
hPa
Rain since
9am
mm
Dir  Spd
km/h
Gust
km/h
Spd
kts
Gust
kts
20/11:30pm 11.8 11.9 10.2 90 0.8 CALM 0 0 0 0 - - 4.2
20/11:00pm 11.6 11.6 9.7 88 1.0 CALM 0 0 0 0 - - 4.2
20/10:30pm 12.2 12.1 9.4 83 1.4 CALM 0 0 0 0 - - 4.2
20/10:00pm 13.6 13.5 9.3 75 2.2 CALM 0 0 0 0 - - 4.2
20/09:30pm 14.3 13.1 9.7 74 2.4 SSW 6 11 3 6 - - 4.2
20/09:00pm 14.8 13.4 9.6 71 2.7 SSW 7 15 4 8 - - 4.2
20/08:30pm 15.3 13.9 9.7 69 2.9 SSW 7 15 4 8 - - 4.2
20/08:00pm 15.7 13.8 8.9 64 3.5 SW 9 17 5 9 - - 4.2
20/07:30pm 16.4 13.4 9.1 62 3.8 SSW 15 20 8 11 - - 4.2
20/07:00pm 17.3 14.7 9.5 60 4.1 SW 13 28 7 15 - - 4.2
20/06:30pm 17.3 14.0 9.7 61 4.0 SW 17 26 9 14 - - 4.2
20/06:00pm 18.0 14.7 9.6 58 4.4 SW 17 30 9 16 - - 4.2
20/05:30pm 18.5 14.9 8.5 52 5.2 SSW 17 30 9 16 - - 4.2
20/05:00pm 18.7 15.6 10.3 58 4.5 SW 17 28 9 15 - - 4.2
20/04:30pm 18.5 14.8 10.1 58 4.5 SW 20 30 11 16 - - 4.2
20/04:00pm 19.0 16.0 10.6 58 4.5 SSW 17 32 9 17 - - 4.2
20/03:30pm 18.1 15.7 10.2 60 4.2 SW 13 24 7 13 - - 4.2
20/03:00pm 18.8 17.0 12.1 65 3.7 SW 13 22 7 12 - - 4.2
20/02:30pm 16.9 13.7 10.1 64 3.6 WSW 17 32 9 17 - - 4.2
20/02:00pm 16.4 13.9 12.2 76 2.3 SW 17 26 9 14 - - 4.2
20/01:30pm 16.4 14.8 11.6 73 2.6 WSW 11 22 6 12 - - 4.0
20/01:00pm 13.0 9.8 10.0 82 1.5 SW 17 26 9 14 - - 4.0
20/12:30pm 16.3 13.0 9.5 64 3.5 WSW 17 30 9 16 - - 0.4
20/12:00pm 15.8 13.3 11.2 74 2.5 WSW 15 28 8 15 - - 0.4
20/11:30am 15.4 13.6 10.8 74 2.4 W 11 19 6 10 - - 0.4
20/11:00am 14.1 11.1 10.5 79 1.9 W 17 28 9 15 - - 0.4
20/10:30am 14.3 11.6 10.3 77 2.1 W 15 28 8 15 - - 0.4
20/10:00am 13.6 10.9 10.4 81 1.7 W 15 26 8 14 - - 0.4
20/09:30am 12.5 11.0 10.6 88 1.0 WNW 9 19 5 10 - - 0.4
20/09:00am 12.3 11.2 10.7 90 0.8 WNW 7 13 4 7 - - 25.0
20/08:30am 11.7 11.5 10.4 92 0.7 W 2 7 1 4 - - 25.0
20/08:00am 11.2 10.4 9.8 91 0.7 NW 4 7 2 4 - - 23.4
20/07:30am 11.1 10.3 9.7 91 0.7 NW 4 9 2 5 - - 23.0
20/07:00am 11.2 10.1 9.8 91 0.7 NNW 6 13 3 7 - - 22.8
20/06:30am 11.2 9.5 9.8 91 0.7 WNW 9 15 5 8 - - 21.6
20/06:00am 10.8 9.6 9.6 92 0.6 WNW 6 9 3 5 - - 21.2
20/05:30am 10.6 9.6 9.0 90 0.8 NW 4 9 2 5 - - 19.8
20/05:00am 10.6 9.2 9.0 90 0.8 NNW 6 9 3 5 - - 19.8
20/04:30am 10.5 9.1 8.8 89 0.8 NW 6 15 3 8 - - 19.8
20/04:00am 10.3 9.3 8.7 90 0.8 NNW 4 7 2 4 - - 19.4
20/03:30am 10.2 9.2 8.8 91 0.7 NNW 4 7 2 4 - - 19.0
20/03:00am 10.3 8.9 8.7 90 0.8 NNW 6 11 3 6 - - 17.2
20/02:30am 10.1 8.5 8.7 91 0.7 NW 7 13 4 7 - - 17.0
20/02:00am 10.4 8.3 8.3 87 1.0 NW 9 17 5 9 - - 15.0
20/01:30am 10.4 8.9 8.5 88 0.9 NNW 6 11 3 6 - - 14.2
20/01:00am 10.4 8.9 9.0 91 0.7 NNE 7 11 4 6 - - 14.0
20/12:30am 10.3 9.3 8.7 90 0.8 NNE 4 6 2 3 - - 13.4
20/12:00am 10.4 8.7 8.5 88 0.9 NE 7 13 4 7 - - 13.2
 
Date/Time
EDT
Temp
°C
App
Temp
°C
Dew
Point
°C
Rel
Hum
%
Delta-T
°C
Wind Press
QNH
hPa
Press
MSL
hPa
Rain since
9am
mm
Dir  Spd
km/h
Gust
km/h
Spd
kts
Gust
kts
19/11:30pm 10.5 8.9 8.8 89 0.8 N 7 13 4 7 - - 10.0
19/11:00pm 10.5 9.5 8.8 89 0.8 NNE 4 7 2 4 - - 8.6
19/10:30pm 10.4 9.0 8.8 90 0.8 N 6 22 3 12 - - 8.2
19/10:00pm 9.3 7.7 7.9 91 0.7 NE 6 7 3 4 - - 7.8
19/09:30pm 8.5 7.9 7.3 92 0.6 CALM 0 0 0 0 - - 7.8
19/09:00pm 9.0 8.4 7.6 91 0.7 CALM 0 4 0 2 - - 7.8
19/08:30pm 9.6 9.1 7.7 88 0.9 CALM 0 4 0 2 - - 7.8
19/08:00pm 10.5 9.7 6.6 77 1.8 CALM 0 4 0 2 - - 7.8

Latest Capital City Observations: Canberra | Sydney | Melbourne | Brisbane | Adelaide | Perth | Hobart | Darwin

Other Formats:

Comma delimited format used in spreadsheet applications
http://www.bom.gov.au/fwo/IDV60901/IDV60901.95867.axf

JavaScript Object Notation format (JSON) in row-major order
http://www.bom.gov.au/fwo/IDV60901/IDV60901.95867.json